createdAt,value
2023-03-07T00:00:27.542Z,0.58
2023-03-07T00:02:55.604Z,0.58
2023-03-07T00:05:25.890Z,0.59
2023-03-07T00:07:54.482Z,0.63
2023-03-07T00:10:22.756Z,0.65
2023-03-07T00:12:52.583Z,0.64
2023-03-07T00:15:20.625Z,0.59
2023-03-07T00:17:50.056Z,0.59
2023-03-07T00:20:18.211Z,0.59
2023-03-07T00:22:47.054Z,0.59
2023-03-07T00:25:15.217Z,0.56
2023-03-07T00:27:44.230Z,0.55
2023-03-07T00:30:15.797Z,0.52
2023-03-07T00:32:43.786Z,0.50
2023-03-07T00:35:11.839Z,0.50
2023-03-07T00:37:39.881Z,0.52
2023-03-07T00:40:09.519Z,0.51
2023-03-07T00:42:38.330Z,0.52
2023-03-07T00:45:07.014Z,0.54
2023-03-07T00:47:35.186Z,0.53
2023-03-07T00:50:04.280Z,0.52
2023-03-07T00:52:33.997Z,0.52
2023-03-07T00:55:02.426Z,0.53
2023-03-07T00:57:32.722Z,0.52
2023-03-07T01:00:00.633Z,0.50
2023-03-07T01:02:28.959Z,0.51
2023-03-07T01:04:58.954Z,0.52
2023-03-07T01:07:27.381Z,0.51
2023-03-07T01:09:57.706Z,0.50
2023-03-07T01:12:26.718Z,0.50
2023-03-07T01:14:55.818Z,0.54
2023-03-07T01:17:23.796Z,0.55
2023-03-07T01:19:51.686Z,0.55
2023-03-07T01:22:19.702Z,0.57
2023-03-07T01:24:48.077Z,0.59
2023-03-07T01:27:16.599Z,0.60
2023-03-07T01:29:44.691Z,0.61
2023-03-07T01:32:12.952Z,0.62
2023-03-07T01:34:41.130Z,0.62
2023-03-07T01:37:09.574Z,0.64
2023-03-07T01:39:39.206Z,0.64
2023-03-07T01:42:10.754Z,0.64
2023-03-07T01:45:02.070Z,0.66
2023-03-07T01:47:43.655Z,0.69
2023-03-07T01:50:16.300Z,0.70
2023-03-07T01:52:57.364Z,0.72
2023-03-07T01:55:29.811Z,0.73
2023-03-07T01:58:07.318Z,0.74
2023-03-07T02:00:38.508Z,0.74
2023-03-07T02:03:15.998Z,0.75
2023-03-07T02:05:51.927Z,0.76
2023-03-07T02:08:20.352Z,0.79
2023-03-07T02:10:51.541Z,0.80
2023-03-07T02:13:19.909Z,0.82
2023-03-07T02:15:50.422Z,0.83
2023-03-07T02:18:21.011Z,0.84
2023-03-07T02:21:12.375Z,0.84
2023-03-07T02:24:02.598Z,0.84
2023-03-07T02:26:30.765Z,0.84
2023-03-07T02:29:02.126Z,0.84
2023-03-07T02:31:31.981Z,0.86
2023-03-07T02:34:00.595Z,0.87
2023-03-07T02:36:33.825Z,0.88
2023-03-07T02:39:21.563Z,0.89
2023-03-07T02:41:55.201Z,0.89
2023-03-07T02:44:32.800Z,0.92
2023-03-07T02:47:02.952Z,0.95
2023-03-07T02:49:32.071Z,0.97
2023-03-07T02:52:00.824Z,0.99
2023-03-07T02:54:29.749Z,0.99
2023-03-07T02:56:58.589Z,1.00
2023-03-07T02:59:26.842Z,1.00
2023-03-07T03:01:55.232Z,1.01
2023-03-07T03:04:23.459Z,1.02
2023-03-07T03:06:51.567Z,1.03
2023-03-07T03:09:19.635Z,1.03
2023-03-07T03:11:51.192Z,1.04
2023-03-07T03:14:20.539Z,1.02
2023-03-07T03:16:49.632Z,1.02
2023-03-07T03:19:18.414Z,1.05
2023-03-07T03:21:46.955Z,1.05
2023-03-07T03:24:15.075Z,1.05
2023-03-07T03:26:43.364Z,1.03
2023-03-07T03:29:11.608Z,1.03
2023-03-07T03:31:40.398Z,1.03
2023-03-07T03:34:09.590Z,1.04
2023-03-07T03:36:37.746Z,1.04
2023-03-07T03:39:11.228Z,1.02
2023-03-07T03:41:45.616Z,1.02
2023-03-07T03:44:13.683Z,1.00
2023-03-07T03:46:41.662Z,1.01
2023-03-07T03:49:13.038Z,1.01
2023-03-07T03:51:42.865Z,1.00
2023-03-07T03:54:11.016Z,0.96
2023-03-07T03:56:39.527Z,0.92
2023-03-07T03:59:08.046Z,0.90
2023-03-07T04:01:36.128Z,0.90
2023-03-07T04:04:05.032Z,0.89
2023-03-07T04:06:34.377Z,0.88
2023-03-07T04:09:04.882Z,0.87
2023-03-07T04:11:34.029Z,0.88
2023-03-07T04:14:03.066Z,0.90
2023-03-07T04:16:35.563Z,0.91
2023-03-07T04:19:03.695Z,0.91
2023-03-07T04:21:32.233Z,0.91
2023-03-07T04:24:07.023Z,0.91
2023-03-07T04:26:36.175Z,0.91
2023-03-07T04:29:04.545Z,0.93
2023-03-07T04:31:36.549Z,0.94
2023-03-07T04:34:06.446Z,0.95
2023-03-07T04:36:34.884Z,0.96
2023-03-07T04:39:02.843Z,0.97
2023-03-07T04:41:32.578Z,0.98
2023-03-07T04:44:26.683Z,1.02
2023-03-07T04:46:54.636Z,1.03
2023-03-07T04:49:22.656Z,1.04
2023-03-07T04:51:50.638Z,1.03
2023-03-07T04:54:21.561Z,1.03
2023-03-07T04:56:51.495Z,1.06
2023-03-07T04:59:21.469Z,1.09
2023-03-07T05:01:50.419Z,1.12
2023-03-07T05:04:18.919Z,1.12
2023-03-07T05:06:48.805Z,1.12
2023-03-07T05:09:16.857Z,1.12
2023-03-07T05:11:45.398Z,1.12
2023-03-07T05:14:13.783Z,1.12
2023-03-07T05:16:42.772Z,1.12
2023-03-07T05:19:11.791Z,1.13
2023-03-07T05:21:59.607Z,1.13
2023-03-07T05:24:27.736Z,1.12
2023-03-07T05:26:55.687Z,1.12
2023-03-07T05:29:23.728Z,1.12
2023-03-07T05:31:51.672Z,1.13
2023-03-07T05:34:20.056Z,1.13
2023-03-07T05:36:48.879Z,1.13
2023-03-07T05:39:17.549Z,1.12
2023-03-07T05:41:45.972Z,1.10
2023-03-07T05:44:15.525Z,1.05
2023-03-07T05:46:43.592Z,1.00
2023-03-07T05:49:11.982Z,0.97
2023-03-07T05:51:39.961Z,0.93
2023-03-07T05:54:07.965Z,0.89
2023-03-07T05:56:40.164Z,0.85
2023-03-07T05:59:11.442Z,0.79
2023-03-07T06:01:44.219Z,0.79
2023-03-07T06:04:12.260Z,0.80
2023-03-07T06:06:40.307Z,0.81
2023-03-07T06:09:10.039Z,0.81
2023-03-07T06:11:38.792Z,0.83
2023-03-07T06:14:13.473Z,0.84
2023-03-07T06:16:41.980Z,0.84
2023-03-07T06:19:10.378Z,0.85
2023-03-07T06:21:39.081Z,0.84
2023-03-07T06:24:07.756Z,0.81
2023-03-07T06:26:35.873Z,0.83
2023-03-07T06:29:04.860Z,0.84
2023-03-07T06:31:33.350Z,0.87
2023-03-07T06:34:01.472Z,0.87
2023-03-07T06:36:32.357Z,0.86
2023-03-07T06:39:01.898Z,0.86
2023-03-07T06:41:30.174Z,0.88
2023-03-07T06:43:59.566Z,0.90
2023-03-07T06:46:31.752Z,0.92
2023-03-07T06:49:02.397Z,0.91
2023-03-07T06:51:31.196Z,0.90
2023-03-07T06:54:02.430Z,0.91
2023-03-07T06:56:31.283Z,0.94
2023-03-07T06:58:59.988Z,0.97
2023-03-07T07:01:28.314Z,1.03
2023-03-07T07:03:58.208Z,1.11
2023-03-07T07:06:30.578Z,1.18
2023-03-07T07:08:58.994Z,1.22
2023-03-07T07:11:32.415Z,1.27
2023-03-07T07:14:01.642Z,1.31
2023-03-07T07:16:29.951Z,1.33
2023-03-07T07:18:58.073Z,1.39
2023-03-07T07:21:26.058Z,1.43
2023-03-07T07:23:56.734Z,1.47
2023-03-07T07:26:28.587Z,1.52
2023-03-07T07:28:58.040Z,1.54
2023-03-07T07:31:26.299Z,1.57
2023-03-07T07:33:54.730Z,1.58
2023-03-07T07:36:23.813Z,1.59
2023-03-07T07:38:57.967Z,1.61
2023-03-07T07:41:26.411Z,1.61
2023-03-07T07:43:55.782Z,1.63
2023-03-07T07:46:32.321Z,1.67
2023-03-07T07:49:00.463Z,1.72
2023-03-07T07:51:29.061Z,1.72
2023-03-07T07:53:57.525Z,1.73
2023-03-07T07:56:26.205Z,1.74
2023-03-07T07:58:55.898Z,1.76
2023-03-07T08:01:24.793Z,1.75
2023-03-07T08:03:53.735Z,1.75
2023-03-07T08:06:23.963Z,1.78
2023-03-07T08:08:52.463Z,1.80
2023-03-07T08:11:20.842Z,1.81
2023-03-07T08:13:49.825Z,1.82
2023-03-07T08:16:20.095Z,1.87
2023-03-07T08:18:53.399Z,1.89
2023-03-07T08:21:21.772Z,1.96
2023-03-07T08:23:49.800Z,-128.00
2023-03-07T08:26:17.814Z,-128.00
2023-03-07T08:28:46.683Z,-128.00
2023-03-07T08:31:17.183Z,-128.00
2023-03-07T08:33:56.461Z,-128.00
2023-03-07T08:36:24.669Z,-128.00
2023-03-07T08:38:59.230Z,-128.00
2023-03-07T08:41:27.300Z,-128.00
2023-03-07T08:43:55.275Z,-128.00
2023-03-07T08:46:23.719Z,-128.00
2023-03-07T08:48:51.665Z,-128.00
2023-03-07T08:51:20.993Z,-128.00
2023-03-07T08:53:49.478Z,-128.00
2023-03-07T08:56:18.247Z,-128.00
2023-03-07T08:58:46.378Z,-128.00
2023-03-07T09:01:14.460Z,-128.00
2023-03-07T09:03:42.720Z,-128.00
2023-03-07T09:06:19.236Z,-128.00
2023-03-07T09:08:47.788Z,-128.00
2023-03-07T09:11:17.757Z,-128.00
2023-03-07T09:13:51.960Z,-128.00
2023-03-07T09:16:21.397Z,-128.00
2023-03-07T09:18:50.127Z,-128.00
2023-03-07T09:21:19.776Z,-128.00
2023-03-07T09:23:48.050Z,-128.00
2023-03-07T09:26:19.118Z,-128.00
2023-03-07T09:28:47.368Z,-128.00
2023-03-07T09:31:16.035Z,-128.00
2023-03-07T09:33:46.950Z,-128.00
2023-03-07T09:36:15.768Z,-128.00
2023-03-07T09:38:44.124Z,-128.00
2023-03-07T09:41:24.943Z,-128.00
2023-03-07T09:44:07.983Z,-128.00
2023-03-07T09:47:01.878Z,-128.00
2023-03-07T09:49:34.655Z,-128.00
2023-03-07T09:52:02.738Z,-128.00
2023-03-07T09:54:42.975Z,-128.00
2023-03-07T09:57:26.423Z,-128.00
2023-03-07T10:00:31.691Z,-128.00
2023-03-07T10:03:22.299Z,-128.00
2023-03-07T10:05:51.785Z,-128.00
2023-03-07T10:08:28.685Z,-128.00
2023-03-07T10:11:16.278Z,-128.00
2023-03-07T10:14:01.385Z,-128.00
2023-03-07T10:16:46.256Z,-128.00
2023-03-07T10:19:29.975Z,-128.00
2023-03-07T10:22:27.446Z,-128.00
2023-03-07T10:25:25.967Z,-128.00
2023-03-07T10:27:59.993Z,-128.00
2023-03-07T10:30:31.965Z,-128.00
2023-03-07T10:33:01.726Z,-128.00
2023-03-07T10:35:38.539Z,-128.00
2023-03-07T10:38:19.685Z,-128.00
2023-03-07T10:40:52.674Z,-128.00
2023-03-07T10:43:26.060Z,-128.00
2023-03-07T10:46:31.718Z,-128.00
2023-03-07T10:49:13.735Z,-128.00
2023-03-07T10:52:03.835Z,-128.00
2023-03-07T10:54:35.646Z,-128.00
2023-03-07T10:57:12.421Z,-128.00
2023-03-07T10:59:45.000Z,-128.00
2023-03-07T11:02:30.073Z,-128.00
2023-03-07T11:04:58.133Z,-128.00
2023-03-07T11:07:34.802Z,-128.00
2023-03-07T11:10:27.863Z,-128.00
2023-03-07T11:13:07.699Z,-128.00
2023-03-07T11:15:35.999Z,-128.00
2023-03-07T11:18:04.474Z,-128.00
2023-03-07T11:20:49.773Z,-128.00
2023-03-07T11:23:26.313Z,-128.00
2023-03-07T11:25:56.384Z,-128.00
2023-03-07T11:28:33.661Z,-128.00
2023-03-07T11:31:01.826Z,-128.00
2023-03-07T11:33:39.288Z,-128.00
2023-03-07T11:36:30.778Z,-128.00
2023-03-07T11:39:13.901Z,-128.00
2023-03-07T11:41:52.444Z,-128.00
2023-03-07T11:44:39.441Z,-128.00
2023-03-07T11:47:22.640Z,-128.00
2023-03-07T11:50:12.928Z,-128.00
2023-03-07T11:52:57.239Z,-128.00
2023-03-07T11:55:25.466Z,-128.00
2023-03-07T11:58:31.401Z,-128.00
2023-03-07T12:00:59.349Z,-128.00
2023-03-07T12:03:46.477Z,-128.00
2023-03-07T12:06:23.856Z,-128.00
2023-03-07T12:09:31.554Z,-128.00
2023-03-07T12:12:08.263Z,-128.00
2023-03-07T12:14:42.332Z,-128.00
2023-03-07T12:17:10.251Z,-128.00
2023-03-07T12:20:18.968Z,-128.00
2023-03-07T12:23:03.113Z,-128.00
2023-03-07T12:25:40.240Z,-128.00
2023-03-07T12:28:21.685Z,-128.00
2023-03-07T12:31:14.966Z,-128.00
2023-03-07T12:34:05.155Z,-128.00
2023-03-07T12:36:35.532Z,-128.00
2023-03-07T12:39:31.060Z,-128.00
2023-03-07T12:42:04.936Z,-128.00
2023-03-07T12:44:33.486Z,-128.00
2023-03-07T12:47:42.238Z,-128.00
2023-03-07T12:50:28.939Z,-128.00
2023-03-07T12:53:10.399Z,-128.00
2023-03-07T12:55:50.436Z,-128.00
2023-03-07T12:58:38.546Z,-128.00
2023-03-07T13:01:14.431Z,-128.00
2023-03-07T13:04:04.278Z,-128.00
2023-03-07T13:06:32.631Z,-128.00
2023-03-07T13:09:01.660Z,-128.00
2023-03-07T13:11:31.619Z,-128.00
2023-03-07T13:14:06.795Z,-128.00
2023-03-07T13:16:43.305Z,-128.00
2023-03-07T13:19:30.735Z,-128.00
2023-03-07T13:21:58.672Z,-128.00
2023-03-07T13:24:40.107Z,-128.00
2023-03-07T13:27:17.159Z,-128.00
2023-03-07T13:30:09.882Z,-128.00
2023-03-07T13:32:56.068Z,-128.00
2023-03-07T13:35:28.342Z,-128.00
2023-03-07T13:38:24.476Z,-128.00
2023-03-07T13:41:00.372Z,-128.00
2023-03-07T13:43:28.582Z,-128.00
2023-03-07T13:46:03.977Z,-128.00
2023-03-07T13:48:32.033Z,-128.00
2023-03-07T13:51:00.187Z,-128.00
2023-03-07T13:53:28.995Z,-128.00
2023-03-07T13:56:00.193Z,-128.00
2023-03-07T13:58:36.036Z,-128.00
2023-03-07T14:01:07.001Z,-128.00
2023-03-07T14:03:39.998Z,-128.00
2023-03-07T14:06:15.054Z,-128.00
2023-03-07T14:08:42.944Z,-128.00
2023-03-07T14:11:58.641Z,-128.00
2023-03-07T14:14:36.123Z,-128.00
2023-03-07T14:17:36.969Z,-128.00
2023-03-07T14:20:31.327Z,-128.00
2023-03-07T14:23:31.515Z,-128.00
2023-03-07T14:26:17.387Z,-128.00
2023-03-07T14:28:50.366Z,-128.00
2023-03-07T14:31:42.129Z,-128.00
2023-03-07T14:34:41.701Z,-128.00
2023-03-07T14:37:17.561Z,-128.00
2023-03-07T14:40:19.946Z,-128.00
2023-03-07T14:43:12.626Z,-128.00
2023-03-07T14:46:06.922Z,-128.00
2023-03-07T14:49:06.827Z,-128.00
2023-03-07T14:51:37.210Z,-128.00
2023-03-07T14:54:09.033Z,-128.00
2023-03-07T14:56:38.068Z,-128.00
2023-03-07T14:59:25.941Z,-128.00
2023-03-07T15:01:56.947Z,-128.00
2023-03-07T15:04:32.039Z,-128.00
2023-03-07T15:07:06.328Z,-128.00
2023-03-07T15:09:35.915Z,-128.00
2023-03-07T15:12:24.124Z,-128.00
2023-03-07T15:14:53.886Z,-128.00
2023-03-07T15:17:30.805Z,-128.00
2023-03-07T15:20:01.895Z,-128.00
2023-03-07T15:22:32.035Z,-128.00
2023-03-07T15:25:00.397Z,-128.00
2023-03-07T15:27:31.484Z,-128.00
2023-03-07T15:30:00.981Z,-128.00
2023-03-07T15:32:36.616Z,-128.00
2023-03-07T15:35:05.962Z,-128.00
2023-03-07T15:37:34.478Z,-128.00
2023-03-07T15:40:08.463Z,-128.00
2023-03-07T15:42:49.966Z,-128.00
2023-03-07T15:45:29.361Z,-128.00
2023-03-07T15:47:57.855Z,-128.00
2023-03-07T15:50:26.580Z,-128.00
2023-03-07T15:52:59.116Z,-128.00
2023-03-07T15:55:27.415Z,-128.00
2023-03-07T15:58:03.518Z,-128.00
2023-03-07T16:00:38.529Z,-128.00
2023-03-07T16:03:29.375Z,-128.00
2023-03-07T16:05:59.101Z,-128.00
2023-03-07T16:08:29.006Z,-128.00
2023-03-07T16:10:57.019Z,-128.00
2023-03-07T16:13:31.527Z,-128.00
2023-03-07T16:16:13.725Z,-128.00
2023-03-07T16:18:42.169Z,-128.00
2023-03-07T16:21:13.988Z,-128.00
2023-03-07T16:23:44.296Z,-128.00
2023-03-07T16:26:22.738Z,-128.00
2023-03-07T16:28:51.580Z,-128.00
2023-03-07T16:31:20.011Z,-128.00
2023-03-07T16:33:48.709Z,-128.00
2023-03-07T16:36:16.684Z,-128.00
2023-03-07T16:38:44.766Z,-128.00
2023-03-07T16:41:20.325Z,-128.00
2023-03-07T16:43:57.978Z,-128.00
2023-03-07T16:46:26.091Z,-128.00
2023-03-07T16:48:54.122Z,-128.00
2023-03-07T16:51:23.403Z,-128.00
2023-03-07T16:53:51.751Z,-128.00
2023-03-07T16:56:25.310Z,-128.00
2023-03-07T16:58:53.382Z,-128.00
2023-03-07T17:01:21.335Z,-128.00
2023-03-07T17:03:49.415Z,-128.00
2023-03-07T17:06:18.270Z,-128.00
2023-03-07T17:08:47.130Z,-128.00
2023-03-07T17:11:26.372Z,-128.00
2023-03-07T17:13:59.184Z,-128.00
2023-03-07T17:16:28.409Z,-128.00
2023-03-07T17:18:56.478Z,-128.00
2023-03-07T17:21:24.413Z,-128.00
2023-03-07T17:23:52.494Z,-128.00
2023-03-07T17:26:31.951Z,-128.00
2023-03-07T17:29:08.173Z,-128.00
2023-03-07T17:31:36.301Z,-128.00
2023-03-07T17:34:05.795Z,-128.00
2023-03-07T17:36:33.905Z,-128.00
2023-03-07T17:39:02.068Z,-128.00
2023-03-07T17:41:30.086Z,-128.00
2023-03-07T17:44:03.368Z,-128.00
2023-03-07T17:46:31.883Z,-128.00
2023-03-07T17:48:59.857Z,-128.00
2023-03-07T17:51:27.965Z,-128.00
2023-03-07T17:53:56.746Z,-128.00
2023-03-07T17:56:25.862Z,-128.00
2023-03-07T17:58:53.811Z,-128.00
2023-03-07T18:01:21.673Z,-128.00
2023-03-07T18:03:49.692Z,-128.00
2023-03-07T18:06:18.451Z,-128.00
2023-03-07T18:08:46.743Z,-128.00
2023-03-07T18:11:14.859Z,-128.00
2023-03-07T18:13:46.491Z,-128.00
2023-03-07T18:16:14.435Z,-128.00
2023-03-07T18:18:57.707Z,-128.00
2023-03-07T18:21:29.754Z,-128.00
2023-03-07T18:23:58.039Z,-128.00
2023-03-07T18:26:27.015Z,-128.00
2023-03-07T18:28:56.308Z,-128.00
2023-03-07T18:31:25.763Z,-128.00
2023-03-07T18:33:57.341Z,-128.00
2023-03-07T18:36:25.650Z,-128.00
2023-03-07T18:38:53.569Z,-128.00
2023-03-07T18:41:22.906Z,-128.00
2023-03-07T18:43:52.263Z,-128.00
2023-03-07T18:46:21.714Z,-128.00
2023-03-07T18:48:49.866Z,-128.00
2023-03-07T18:51:23.871Z,-128.00
2023-03-07T18:53:53.062Z,-128.00
2023-03-07T18:56:21.285Z,-128.00
2023-03-07T18:58:55.689Z,-128.00
2023-03-07T19:01:29.083Z,-128.00
2023-03-07T19:04:00.218Z,-128.00
2023-03-07T19:06:32.690Z,-128.00
2023-03-07T19:09:03.011Z,-128.00
2023-03-07T19:11:31.737Z,-128.00
2023-03-07T19:14:00.925Z,-128.00
2023-03-07T19:16:29.592Z,-128.00
2023-03-07T19:19:00.180Z,-128.00
2023-03-07T19:21:29.411Z,-128.00
2023-03-07T19:23:59.097Z,-128.00
2023-03-07T19:26:27.530Z,-128.00
2023-03-07T19:28:56.481Z,-128.00
2023-03-07T19:31:26.794Z,-128.00
2023-03-07T19:33:55.962Z,-128.00
2023-03-07T19:36:28.103Z,-128.00
2023-03-07T19:38:57.991Z,-128.00
2023-03-07T19:41:27.709Z,-128.00
2023-03-07T19:43:56.948Z,-128.00
2023-03-07T19:46:25.050Z,-128.00
2023-03-07T19:48:53.235Z,-128.00
2023-03-07T19:51:25.204Z,-128.00
2023-03-07T19:53:56.790Z,-128.00
2023-03-07T19:56:29.088Z,-128.00
2023-03-07T19:58:58.239Z,-128.00
2023-03-07T20:01:26.944Z,-128.00
2023-03-07T20:03:55.463Z,-128.00
2023-03-07T20:06:25.400Z,-128.00
2023-03-07T20:08:54.088Z,-128.00
2023-03-07T20:11:26.409Z,-128.00
2023-03-07T20:13:56.718Z,-128.00
2023-03-07T20:16:29.843Z,-128.00
2023-03-07T20:18:59.895Z,-128.00
2023-03-07T20:21:36.509Z,-128.00
2023-03-07T20:24:06.981Z,-128.00
2023-03-07T20:26:36.837Z,-128.00
2023-03-07T20:29:05.848Z,-128.00
2023-03-07T20:31:33.945Z,-128.00
2023-03-07T20:34:03.108Z,-128.00
2023-03-07T20:36:33.381Z,-128.00
2023-03-07T20:39:03.344Z,-128.00
2023-03-07T20:41:35.004Z,-128.00
2023-03-07T20:44:04.698Z,-128.00
2023-03-07T20:46:33.030Z,-128.00
2023-03-07T20:49:01.828Z,-128.00
2023-03-07T20:51:34.708Z,-128.00
2023-03-07T20:54:08.959Z,-128.00
2023-03-07T20:56:37.992Z,-128.00
2023-03-07T20:59:12.503Z,-128.00
2023-03-07T21:01:41.436Z,-128.00
2023-03-07T21:04:12.347Z,-128.00
2023-03-07T21:06:42.119Z,-128.00
2023-03-07T21:09:11.203Z,-128.00
2023-03-07T21:11:42.708Z,-128.00
2023-03-07T21:14:12.182Z,-128.00
2023-03-07T21:16:44.797Z,-128.00
2023-03-07T21:19:12.905Z,-128.00
2023-03-07T21:21:41.285Z,-128.00
2023-03-07T21:24:12.050Z,-128.00
2023-03-07T21:26:43.196Z,-128.00
2023-03-07T21:29:13.322Z,-128.00
2023-03-07T21:31:41.315Z,-128.00
2023-03-07T21:34:13.263Z,-128.00
2023-03-07T21:36:41.140Z,-128.00
2023-03-07T21:39:11.120Z,-128.00
2023-03-07T21:41:39.147Z,-128.00
2023-03-07T21:44:07.339Z,-128.00
2023-03-07T21:46:36.303Z,-128.00
2023-03-07T21:49:04.320Z,-128.00
2023-03-07T21:51:32.495Z,-128.00
2023-03-07T21:54:00.874Z,-128.00
2023-03-07T21:56:29.062Z,-128.00
2023-03-07T21:58:57.267Z,-128.00
2023-03-07T22:01:27.363Z,-128.00
2023-03-07T22:03:56.718Z,-128.00
2023-03-07T22:06:24.907Z,-128.00
2023-03-07T22:08:53.121Z,-128.00
2023-03-07T22:11:22.112Z,-128.00
2023-03-07T22:13:52.064Z,-128.00
2023-03-07T22:16:22.142Z,-128.00
2023-03-07T22:18:55.023Z,-128.00
2023-03-07T22:21:25.132Z,-128.00
2023-03-07T22:24:00.229Z,-128.00
2023-03-07T22:26:29.043Z,-128.00
2023-03-07T22:28:57.374Z,-128.00
2023-03-07T22:31:25.673Z,-128.00
2023-03-07T22:33:54.299Z,-128.00
2023-03-07T22:36:22.444Z,-128.00
2023-03-07T22:38:56.715Z,-128.00
2023-03-07T22:41:25.680Z,-128.00
2023-03-07T22:43:53.969Z,-128.00
2023-03-07T22:46:22.133Z,-128.00
2023-03-07T22:48:55.814Z,-128.00
2023-03-07T22:51:24.278Z,-128.00
2023-03-07T22:53:54.219Z,-128.00
2023-03-07T22:56:26.270Z,-128.00
2023-03-07T22:58:58.581Z,-128.00
2023-03-07T23:01:28.310Z,-128.00
2023-03-07T23:03:57.703Z,-128.00
2023-03-07T23:06:31.041Z,-128.00
2023-03-07T23:08:59.976Z,-128.00
2023-03-07T23:11:32.753Z,-128.00
2023-03-07T23:14:00.858Z,-128.00
2023-03-07T23:16:29.924Z,-128.00
2023-03-07T23:18:59.284Z,-128.00
2023-03-07T23:21:30.113Z,-128.00
2023-03-07T23:23:59.649Z,-128.00
2023-03-07T23:26:32.896Z,-128.00
2023-03-07T23:29:01.981Z,-128.00
2023-03-07T23:31:32.067Z,-128.00
2023-03-07T23:34:01.468Z,-128.00
2023-03-07T23:36:35.988Z,-128.00
2023-03-07T23:39:04.159Z,-128.00
2023-03-07T23:41:32.158Z,-128.00
2023-03-07T23:44:01.302Z,-128.00
2023-03-07T23:46:30.191Z,-128.00
2023-03-07T23:48:59.566Z,-128.00
2023-03-07T23:51:27.777Z,-128.00
2023-03-07T23:53:55.761Z,-128.00
2023-03-07T23:56:23.670Z,-128.00
2023-03-07T23:58:51.959Z,-128.00
